createdAt,value
2018-11-26T00:01:57.898Z,9.63
2018-11-26T00:04:25.596Z,11.67
2018-11-26T00:06:53.569Z,11.80
2018-11-26T00:09:21.248Z,11.60
2018-11-26T00:11:48.953Z,11.43
2018-11-26T00:14:16.823Z,10.57
2018-11-26T00:16:44.482Z,11.03
2018-11-26T00:19:12.100Z,10.97
2018-11-26T00:21:40.538Z,10.27
2018-11-26T00:24:08.185Z,11.50
2018-11-26T00:26:49.098Z,10.43
2018-11-26T00:29:16.896Z,9.90
2018-11-26T00:31:44.564Z,10.70
2018-11-26T00:34:12.392Z,10.50
2018-11-26T00:36:40.069Z,10.73
2018-11-26T00:39:09.433Z,11.90
2018-11-26T00:41:37.205Z,11.50
2018-11-26T00:44:05.510Z,10.57
2018-11-26T00:46:33.197Z,10.93
2018-11-26T00:49:00.974Z,12.17
2018-11-26T00:51:28.672Z,11.70
2018-11-26T00:53:56.408Z,11.73
2018-11-26T00:56:24.161Z,12.10
2018-11-26T00:58:51.814Z,12.70
2018-11-26T01:01:19.447Z,11.93
2018-11-26T01:03:47.356Z,12.87
2018-11-26T01:06:15.008Z,12.80
2018-11-26T01:08:42.648Z,12.13
2018-11-26T01:11:10.573Z,13.03
2018-11-26T01:13:38.241Z,13.30
2018-11-26T01:16:05.906Z,14.00
2018-11-26T01:18:33.833Z,14.33
2018-11-26T01:21:02.344Z,15.23
2018-11-26T01:23:30.070Z,16.27
2018-11-26T01:25:58.010Z,15.07
2018-11-26T01:28:25.646Z,16.87
2018-11-26T01:30:53.312Z,17.20
2018-11-26T01:33:21.841Z,16.47
2018-11-26T01:35:49.487Z,16.67
2018-11-26T01:38:17.105Z,17.47
2018-11-26T01:40:47.703Z,16.90
2018-11-26T01:43:15.482Z,17.40
2018-11-26T01:45:43.134Z,17.90
2018-11-26T01:48:10.722Z,18.57
2018-11-26T01:50:38.441Z,18.07
2018-11-26T01:53:06.712Z,16.80
2018-11-26T01:55:34.809Z,18.47
2018-11-26T01:58:02.551Z,18.13
2018-11-26T02:00:30.217Z,17.00
2018-11-26T02:02:57.902Z,17.47
2018-11-26T02:05:25.802Z,17.67
2018-11-26T02:07:53.531Z,17.77
2018-11-26T02:10:21.187Z,17.90
2018-11-26T02:12:49.415Z,17.63
2018-11-26T02:15:39.968Z,17.97
2018-11-26T02:18:08.498Z,17.87
2018-11-26T02:20:36.145Z,18.70
2018-11-26T02:23:03.805Z,19.17
2018-11-26T02:25:31.527Z,18.67
2018-11-26T02:27:59.148Z,19.33
2018-11-26T02:30:26.913Z,19.90
2018-11-26T02:32:54.772Z,19.13
2018-11-26T02:35:22.448Z,20.07
2018-11-26T02:37:51.027Z,19.67
2018-11-26T02:40:21.649Z,20.90
2018-11-26T02:42:49.497Z,19.33
2018-11-26T02:45:17.168Z,20.70
2018-11-26T02:47:45.007Z,20.60
2018-11-26T02:50:12.602Z,20.10
2018-11-26T02:52:40.212Z,20.97
2018-11-26T02:55:08.113Z,20.13
2018-11-26T02:57:35.773Z,20.30
2018-11-26T03:00:05.046Z,20.93
2018-11-26T03:02:33.111Z,20.97
2018-11-26T03:05:00.752Z,20.63
2018-11-26T03:07:28.366Z,20.47
2018-11-26T03:09:56.297Z,21.20
2018-11-26T03:12:23.941Z,20.80
2018-11-26T03:14:51.597Z,20.40
2018-11-26T03:17:20.028Z,20.43
2018-11-26T03:19:47.656Z,19.63
2018-11-26T03:22:15.318Z,19.23
2018-11-26T03:24:43.196Z,19.13
2018-11-26T03:27:10.891Z,20.63
2018-11-26T03:29:38.739Z,19.57
2018-11-26T03:32:06.400Z,19.13
2018-11-26T03:34:34.000Z,18.60
2018-11-26T03:37:01.952Z,19.03
2018-11-26T03:39:29.568Z,18.13
2018-11-26T03:41:57.229Z,19.17
2018-11-26T03:44:25.159Z,18.43
2018-11-26T03:46:52.804Z,17.87
2018-11-26T03:49:20.271Z,18.03
2018-11-26T03:51:48.149Z,18.23
2018-11-26T03:54:15.797Z,16.20
2018-11-26T03:56:43.431Z,17.30
2018-11-26T03:59:11.423Z,18.93
2018-11-26T04:01:39.129Z,17.77
2018-11-26T04:04:06.777Z,16.17
2018-11-26T04:06:34.554Z,17.97
2018-11-26T04:09:02.235Z,17.07
2018-11-26T04:11:29.880Z,17.20
2018-11-26T04:13:57.996Z,17.30
2018-11-26T04:16:25.957Z,17.53
2018-11-26T04:18:53.601Z,17.73
2018-11-26T04:21:21.524Z,17.23
2018-11-26T04:23:49.873Z,17.13
2018-11-26T04:26:17.568Z,16.20
2018-11-26T04:28:45.621Z,16.10
2018-11-26T04:31:13.270Z,16.53
2018-11-26T04:33:40.951Z,17.47
2018-11-26T04:36:15.560Z,16.43
2018-11-26T04:38:43.186Z,16.70
2018-11-26T04:41:10.826Z,16.53
2018-11-26T04:43:38.799Z,15.73
2018-11-26T04:46:06.445Z,16.57
2018-11-26T04:48:34.397Z,16.97
2018-11-26T04:51:02.307Z,16.33
2018-11-26T04:53:30.603Z,16.40
2018-11-26T04:55:58.309Z,16.47
2018-11-26T04:58:26.019Z,16.93
2018-11-26T05:00:53.783Z,16.70
2018-11-26T05:03:21.388Z,15.97
2018-11-26T05:05:49.146Z,17.00
2018-11-26T05:08:16.806Z,16.17
2018-11-26T05:10:44.508Z,15.93
2018-11-26T05:13:12.435Z,16.23
2018-11-26T05:15:40.064Z,16.50
2018-11-26T05:18:07.756Z,17.20
2018-11-26T05:20:35.627Z,16.43
2018-11-26T05:23:03.267Z,15.70
2018-11-26T05:25:30.903Z,16.30
2018-11-26T05:27:58.778Z,16.27
2018-11-26T05:30:26.401Z,16.40
2018-11-26T05:32:54.012Z,16.93
2018-11-26T05:35:21.964Z,14.87
2018-11-26T05:37:49.648Z,14.97
2018-11-26T05:40:17.543Z,15.80
2018-11-26T05:42:45.570Z,15.33
2018-11-26T05:45:14.120Z,15.23
2018-11-26T05:47:41.813Z,14.97
2018-11-26T05:50:11.048Z,15.50
2018-11-26T05:52:39.249Z,14.53
2018-11-26T05:55:11.484Z,14.53
2018-11-26T05:57:39.105Z,15.90
2018-11-26T06:00:10.804Z,14.70
2018-11-26T06:02:38.511Z,15.00
2018-11-26T06:05:06.521Z,15.23
2018-11-26T06:07:34.233Z,14.30
2018-11-26T06:10:02.026Z,14.47
2018-11-26T06:12:30.024Z,14.80
2018-11-26T06:15:11.946Z,15.90
2018-11-26T06:17:40.028Z,14.33
2018-11-26T06:20:26.162Z,15.43
2018-11-26T06:22:54.616Z,14.53
2018-11-26T06:25:53.223Z,15.23
2018-11-26T06:28:36.212Z,14.57
2018-11-26T06:31:18.372Z,14.87
2018-11-26T06:33:46.185Z,15.23
2018-11-26T06:36:13.910Z,15.30
2018-11-26T06:38:41.619Z,15.03
2018-11-26T06:41:09.679Z,15.53
2018-11-26T06:43:37.393Z,15.97
2018-11-26T06:46:06.418Z,16.40
2018-11-26T06:48:34.669Z,16.23
2018-11-26T06:51:02.188Z,16.77
2018-11-26T06:53:29.853Z,15.73
2018-11-26T06:55:57.906Z,15.13
2018-11-26T06:58:25.529Z,15.73
2018-11-26T07:00:53.181Z,14.97
2018-11-26T07:03:21.125Z,15.67
2018-11-26T07:05:48.830Z,15.77
2018-11-26T07:08:16.912Z,16.20
2018-11-26T07:10:44.577Z,16.23
2018-11-26T07:13:12.195Z,17.27
2018-11-26T07:15:40.512Z,15.53
2018-11-26T07:18:08.200Z,16.20
2018-11-26T07:20:36.836Z,17.00
2018-11-26T07:23:05.042Z,15.80
2018-11-26T07:25:32.760Z,17.47
2018-11-26T07:28:00.633Z,15.47
2018-11-26T07:30:29.625Z,15.63
2018-11-26T07:32:58.138Z,16.03
2018-11-26T07:35:25.829Z,17.10
2018-11-26T07:37:53.698Z,15.17
2018-11-26T07:40:22.020Z,15.70
2018-11-26T07:42:58.549Z,16.00
2018-11-26T07:45:26.236Z,16.53
2018-11-26T07:47:53.895Z,16.97
2018-11-26T07:50:21.750Z,15.80
2018-11-26T07:52:49.796Z,15.87
2018-11-26T07:55:18.580Z,16.03
2018-11-26T07:57:47.707Z,16.73
2018-11-26T08:00:16.359Z,16.07
2018-11-26T08:02:44.433Z,15.57
2018-11-26T08:05:15.338Z,17.20
2018-11-26T08:07:42.975Z,17.00
2018-11-26T08:10:13.818Z,16.70
2018-11-26T08:12:42.089Z,16.07
2018-11-26T08:15:13.115Z,17.03
2018-11-26T08:17:41.009Z,16.83
2018-11-26T08:20:09.332Z,17.63
2018-11-26T08:22:37.034Z,17.23
2018-11-26T08:25:11.913Z,16.73
2018-11-26T08:27:40.006Z,16.77
2018-11-26T08:30:17.612Z,16.70
2018-11-26T08:32:48.280Z,17.87
2018-11-26T08:35:16.363Z,17.70
2018-11-26T08:37:49.798Z,17.77
2018-11-26T08:40:23.168Z,17.50
2018-11-26T08:42:55.617Z,18.97
2018-11-26T08:45:28.809Z,17.87
2018-11-26T08:48:03.080Z,17.43
2018-11-26T08:50:30.681Z,18.13
2018-11-26T08:52:58.385Z,16.40
2018-11-26T08:55:26.417Z,17.10
2018-11-26T08:57:54.096Z,16.73
2018-11-26T09:00:21.765Z,17.33
2018-11-26T09:03:00.352Z,17.57
2018-11-26T09:05:36.011Z,15.80
2018-11-26T09:08:03.747Z,15.33
2018-11-26T09:10:31.390Z,14.87
2018-11-26T09:12:59.001Z,15.80
2018-11-26T09:15:26.986Z,15.53
2018-11-26T09:17:55.275Z,13.67
2018-11-26T09:20:23.086Z,15.27
2018-11-26T09:22:51.005Z,16.50
2018-11-26T09:25:18.825Z,16.40
2018-11-26T09:27:46.496Z,15.43
2018-11-26T09:30:14.628Z,13.80
2018-11-26T09:32:42.646Z,15.03
2018-11-26T09:35:12.557Z,13.33
2018-11-26T09:37:40.368Z,13.80
2018-11-26T09:40:09.817Z,14.17
2018-11-26T09:42:37.463Z,13.43
2018-11-26T09:45:07.827Z,13.83
2018-11-26T09:47:35.424Z,14.30
2018-11-26T09:50:03.257Z,14.37
2018-11-26T09:52:31.104Z,13.13
2018-11-26T09:54:58.732Z,11.57
2018-11-26T09:57:26.422Z,13.13
2018-11-26T09:59:54.395Z,13.73
2018-11-26T10:02:22.123Z,12.57
2018-11-26T10:04:49.744Z,12.80
2018-11-26T10:07:17.703Z,11.57
2018-11-26T10:09:45.980Z,11.60
2018-11-26T10:12:13.637Z,11.93
2018-11-26T10:14:41.671Z,11.83
2018-11-26T10:17:09.367Z,12.60
2018-11-26T10:19:37.087Z,11.27
2018-11-26T10:22:05.131Z,12.30
2018-11-26T10:24:32.906Z,11.40
2018-11-26T10:27:01.509Z,12.17
2018-11-26T10:29:29.400Z,12.00
2018-11-26T10:31:57.052Z,12.70
2018-11-26T10:34:24.939Z,12.33
2018-11-26T10:36:53.052Z,13.57
2018-11-26T10:39:20.642Z,13.00
2018-11-26T10:41:48.284Z,11.87
2018-11-26T10:44:15.966Z,11.80
2018-11-26T10:46:43.630Z,12.17
2018-11-26T10:49:11.260Z,10.87
2018-11-26T10:51:39.046Z,12.03
2018-11-26T10:54:06.706Z,12.17
2018-11-26T10:56:34.316Z,11.87
2018-11-26T10:59:02.216Z,11.00
2018-11-26T11:01:35.741Z,10.47
2018-11-26T11:04:03.686Z,11.03
2018-11-26T11:06:31.303Z,11.30
2018-11-26T11:08:58.972Z,10.10
2018-11-26T11:11:26.791Z,10.57
2018-11-26T11:13:54.438Z,10.30
2018-11-26T11:16:22.923Z,10.70
2018-11-26T11:18:50.640Z,11.10
2018-11-26T11:21:18.287Z,11.77
2018-11-26T11:23:46.157Z,12.20
2018-11-26T11:26:13.815Z,10.40
2018-11-26T11:28:41.492Z,9.67
2018-11-26T11:31:09.472Z,11.00
2018-11-26T11:33:37.174Z,9.80
2018-11-26T11:36:05.110Z,9.93
2018-11-26T11:38:33.080Z,9.23
2018-11-26T11:41:00.758Z,8.63
2018-11-26T11:43:28.419Z,9.47
2018-11-26T11:45:56.297Z,9.17
2018-11-26T11:48:23.936Z,9.50
2018-11-26T11:50:51.631Z,8.80
2018-11-26T11:53:19.730Z,9.40
2018-11-26T11:55:47.417Z,10.03
2018-11-26T11:58:15.043Z,9.93
2018-11-26T12:00:44.763Z,9.97
2018-11-26T12:03:17.614Z,9.17
2018-11-26T12:05:45.555Z,10.00
2018-11-26T12:08:13.587Z,8.97
2018-11-26T12:10:41.348Z,9.50
2018-11-26T12:13:10.462Z,9.63
2018-11-26T12:15:39.579Z,10.00
2018-11-26T12:18:07.911Z,10.03
2018-11-26T12:20:36.138Z,10.27
2018-11-26T12:23:04.009Z,10.33
2018-11-26T12:25:31.659Z,10.23
2018-11-26T12:27:59.661Z,10.57
2018-11-26T12:30:27.673Z,10.37
2018-11-26T12:32:55.334Z,10.97
2018-11-26T12:35:23.068Z,10.73
2018-11-26T12:37:50.956Z,9.77
2018-11-26T12:40:19.610Z,10.77
2018-11-26T12:42:48.125Z,11.13
2018-11-26T12:45:17.317Z,10.90
2018-11-26T12:47:44.937Z,11.70
2018-11-26T12:50:13.200Z,10.50
2018-11-26T12:52:41.710Z,11.50
2018-11-26T12:55:13.527Z,11.43
2018-11-26T12:57:42.178Z,12.30
2018-11-26T13:00:12.876Z,13.43
2018-11-26T13:02:40.798Z,11.83
2018-11-26T13:05:16.137Z,11.87
2018-11-26T13:07:43.862Z,12.40
2018-11-26T13:10:12.676Z,12.47
2018-11-26T13:12:40.352Z,12.13
2018-11-26T13:15:12.318Z,12.57
2018-11-26T13:17:39.983Z,13.17
2018-11-26T13:20:10.410Z,12.73
2018-11-26T13:22:38.169Z,12.87
2018-11-26T13:25:07.597Z,13.07
2018-11-26T13:27:35.829Z,12.47
2018-11-26T13:30:04.265Z,12.53
2018-11-26T13:32:31.995Z,12.50
2018-11-26T13:34:59.787Z,12.57
2018-11-26T13:37:27.430Z,12.93
2018-11-26T13:39:55.113Z,13.13
2018-11-26T13:42:23.306Z,13.00
2018-11-26T13:44:55.079Z,13.10
2018-11-26T13:47:27.562Z,12.90
2018-11-26T13:49:55.182Z,14.10
2018-11-26T13:52:35.685Z,14.10
2018-11-26T13:55:34.134Z,13.50
2018-11-26T13:58:17.892Z,13.33
2018-11-26T14:01:08.621Z,14.17
2018-11-26T14:03:36.505Z,16.13
2018-11-26T14:06:04.322Z,15.00
2018-11-26T14:08:31.966Z,14.30
2018-11-26T14:11:00.680Z,14.83
2018-11-26T14:13:28.312Z,15.63
2018-11-26T14:15:56.017Z,12.53
2018-11-26T14:18:24.101Z,13.37
2018-11-26T14:20:51.765Z,12.20
2018-11-26T14:23:19.637Z,13.37
2018-11-26T14:25:47.451Z,12.43
2018-11-26T14:28:15.089Z,11.13
2018-11-26T14:30:42.812Z,10.40
2018-11-26T14:33:10.710Z,11.27
2018-11-26T14:35:38.384Z,10.37
2018-11-26T14:38:07.248Z,9.00
2018-11-26T14:40:41.923Z,10.77
2018-11-26T14:43:09.853Z,9.70
2018-11-26T14:45:37.525Z,9.20
2018-11-26T14:48:05.868Z,9.80
2018-11-26T14:50:34.400Z,9.73
2018-11-26T14:53:03.987Z,10.00
2018-11-26T14:55:33.247Z,9.17
2018-11-26T14:58:00.989Z,9.20
2018-11-26T15:00:28.626Z,9.17
2018-11-26T15:02:56.550Z,9.67
2018-11-26T15:05:24.191Z,8.07
2018-11-26T15:07:51.885Z,8.23
2018-11-26T15:10:20.774Z,7.03
2018-11-26T15:12:48.570Z,9.07
2018-11-26T15:15:19.530Z,9.23
2018-11-26T15:17:47.559Z,9.60
2018-11-26T15:20:17.309Z,9.27
2018-11-26T15:22:44.969Z,10.80
2018-11-26T15:25:16.297Z,11.60
2018-11-26T15:27:44.027Z,11.67
2018-11-26T15:30:13.764Z,11.90
2018-11-26T15:32:41.652Z,10.90
2018-11-26T15:35:14.001Z,11.47
2018-11-26T15:37:41.722Z,10.40
2018-11-26T15:40:10.354Z,12.40
2018-11-26T15:42:38.520Z,11.77
2018-11-26T15:45:25.946Z,11.03
2018-11-26T15:47:55.013Z,11.43
2018-11-26T15:50:22.660Z,10.67
2018-11-26T15:52:52.677Z,10.37
2018-11-26T15:55:21.562Z,10.23
2018-11-26T15:57:49.743Z,10.73
2018-11-26T16:00:19.230Z,10.40
2018-11-26T16:02:47.001Z,10.03
2018-11-26T16:05:17.931Z,10.07
2018-11-26T16:07:46.139Z,10.67
2018-11-26T16:10:14.624Z,10.40
2018-11-26T16:12:43.210Z,10.57
2018-11-26T16:15:13.471Z,9.27
2018-11-26T16:17:41.530Z,9.97
2018-11-26T16:20:10.814Z,10.57
2018-11-26T16:22:38.517Z,10.37
2018-11-26T16:25:09.290Z,10.43
2018-11-26T16:27:36.949Z,10.33
2018-11-26T16:30:06.900Z,10.30
2018-11-26T16:32:34.574Z,10.40
2018-11-26T16:35:02.231Z,9.97
2018-11-26T16:37:29.862Z,10.13
2018-11-26T16:39:57.605Z,10.23
2018-11-26T16:42:25.291Z,10.37
2018-11-26T16:44:53.061Z,9.93
2018-11-26T16:47:21.003Z,10.70
2018-11-26T16:49:48.723Z,10.60
2018-11-26T16:52:16.385Z,10.27
2018-11-26T16:54:44.114Z,9.93
2018-11-26T16:57:12.826Z,10.03
2018-11-26T16:59:40.493Z,10.57
2018-11-26T17:02:08.434Z,10.37
2018-11-26T17:04:36.046Z,10.77
2018-11-26T17:07:04.588Z,11.07
2018-11-26T17:09:32.253Z,11.30
2018-11-26T17:11:59.898Z,10.13
2018-11-26T17:14:27.583Z,9.73
2018-11-26T17:16:55.207Z,10.37
2018-11-26T17:19:23.122Z,8.97
2018-11-26T17:21:50.784Z,9.57
2018-11-26T17:24:18.422Z,11.03
2018-11-26T17:26:46.332Z,10.10
2018-11-26T17:29:13.984Z,10.23
2018-11-26T17:31:41.687Z,10.50
2018-11-26T17:34:09.369Z,10.97
2018-11-26T17:36:37.104Z,10.90
2018-11-26T17:39:07.221Z,10.97
2018-11-26T17:41:34.948Z,10.83
2018-11-26T17:44:02.635Z,11.93
2018-11-26T17:46:30.302Z,11.30
2018-11-26T17:48:58.319Z,12.07
2018-11-26T17:51:26.052Z,11.83
2018-11-26T17:53:53.739Z,12.00
2018-11-26T17:56:22.011Z,11.10
2018-11-26T17:58:49.632Z,11.30
2018-11-26T18:01:26.862Z,12.20
2018-11-26T18:03:54.550Z,11.27
2018-11-26T18:06:23.841Z,10.97
2018-11-26T18:08:51.721Z,11.47
2018-11-26T18:11:19.345Z,11.70
2018-11-26T18:13:46.954Z,11.93
2018-11-26T18:16:14.928Z,11.20
2018-11-26T18:18:42.556Z,11.60
2018-11-26T18:21:10.309Z,10.63
2018-11-26T18:23:38.236Z,11.03
2018-11-26T18:26:05.994Z,11.43
2018-11-26T18:28:33.639Z,10.90
2018-11-26T18:31:01.550Z,10.87
2018-11-26T18:33:29.179Z,9.17
2018-11-26T18:35:56.948Z,10.20
2018-11-26T18:38:25.534Z,10.03
2018-11-26T18:40:53.183Z,10.27
2018-11-26T18:43:20.802Z,10.40
2018-11-26T18:45:48.590Z,10.40
2018-11-26T18:48:16.315Z,11.27
2018-11-26T18:50:44.038Z,10.07
2018-11-26T18:53:11.995Z,11.60
2018-11-26T18:55:40.666Z,10.63
2018-11-26T18:58:08.505Z,10.27
2018-11-26T19:00:44.103Z,10.87
2018-11-26T19:03:16.517Z,9.37
2018-11-26T19:05:44.555Z,9.90
2018-11-26T19:08:12.262Z,9.67
2018-11-26T19:10:39.943Z,9.30
2018-11-26T19:13:11.129Z,9.67
2018-11-26T19:15:40.001Z,8.90
2018-11-26T19:18:17.622Z,9.20
2018-11-26T19:20:45.294Z,9.87
2018-11-26T19:23:12.941Z,8.93
2018-11-26T19:25:40.922Z,9.10
2018-11-26T19:28:08.610Z,8.90
2018-11-26T19:30:36.338Z,9.00
2018-11-26T19:33:05.965Z,9.67
2018-11-26T19:35:33.678Z,8.73
2018-11-26T19:38:01.314Z,8.70
2018-11-26T19:40:29.002Z,9.13
2018-11-26T19:42:56.689Z,9.33
2018-11-26T19:45:24.534Z,9.33
2018-11-26T19:47:52.651Z,9.07
2018-11-26T19:50:20.837Z,9.23
2018-11-26T19:52:50.040Z,9.77
2018-11-26T19:55:20.118Z,9.43
2018-11-26T19:57:47.811Z,9.53
2018-11-26T20:00:16.260Z,10.77
2018-11-26T20:02:46.890Z,10.27
2018-11-26T20:05:20.568Z,9.93
2018-11-26T20:07:48.425Z,11.27
2018-11-26T20:10:16.122Z,11.33
2018-11-26T20:12:43.822Z,10.63
2018-11-26T20:15:14.736Z,9.93
2018-11-26T20:17:42.734Z,9.73
2018-11-26T20:20:10.594Z,9.23
2018-11-26T20:22:38.870Z,10.13
2018-11-26T20:25:08.862Z,10.80
2018-11-26T20:27:36.517Z,9.90
2018-11-26T20:30:06.731Z,9.83
2018-11-26T20:32:34.550Z,9.77
2018-11-26T20:35:03.157Z,10.17
2018-11-26T20:37:30.851Z,10.17
2018-11-26T20:39:58.607Z,11.40
2018-11-26T20:42:26.261Z,11.03
2018-11-26T20:44:53.933Z,10.77
2018-11-26T20:47:21.626Z,10.90
2018-11-26T20:49:48.934Z,11.37
2018-11-26T20:52:16.942Z,10.83
2018-11-26T20:54:44.680Z,11.43
2018-11-26T20:57:12.395Z,8.80
2018-11-26T20:59:40.138Z,9.13
2018-11-26T21:02:07.838Z,10.33
2018-11-26T21:04:35.511Z,9.50
2018-11-26T21:07:04.493Z,10.33
2018-11-26T21:09:32.322Z,9.33
2018-11-26T21:12:00.328Z,9.87
2018-11-26T21:14:28.435Z,10.03
2018-11-26T21:16:56.342Z,10.00
2018-11-26T21:19:24.113Z,9.03
2018-11-26T21:21:51.998Z,8.83
2018-11-26T21:24:19.694Z,8.73
2018-11-26T21:26:47.360Z,9.23
2018-11-26T21:29:15.318Z,9.70
2018-11-26T21:31:42.983Z,9.40
2018-11-26T21:34:10.842Z,9.73
2018-11-26T21:36:39.282Z,9.23
2018-11-26T21:39:09.322Z,9.47
2018-11-26T21:41:37.306Z,8.67
2018-11-26T21:44:05.702Z,9.73
2018-11-26T21:46:33.350Z,9.73
2018-11-26T21:49:01.209Z,10.37
2018-11-26T21:51:29.018Z,9.80
2018-11-26T21:53:56.660Z,9.87
2018-11-26T21:56:25.893Z,9.67
2018-11-26T21:58:54.066Z,10.33
2018-11-26T22:01:21.719Z,9.67
2018-11-26T22:03:49.451Z,9.77
2018-11-26T22:06:17.372Z,11.07
2018-11-26T22:08:45.075Z,10.30
2018-11-26T22:11:12.858Z,10.60
2018-11-26T22:13:40.564Z,11.17
2018-11-26T22:16:08.441Z,10.83
2018-11-26T22:18:36.425Z,11.13
2018-11-26T22:21:04.750Z,11.63
2018-11-26T22:23:32.398Z,11.50
2018-11-26T22:26:00.270Z,11.50
2018-11-26T22:28:27.914Z,10.70
2018-11-26T22:30:55.616Z,10.07
2018-11-26T22:33:23.807Z,10.27
2018-11-26T22:35:51.442Z,10.83
2018-11-26T22:38:19.134Z,11.20
2018-11-26T22:40:46.834Z,11.37
2018-11-26T22:43:14.490Z,10.23
2018-11-26T22:45:42.231Z,10.60
2018-11-26T22:48:11.151Z,11.23
2018-11-26T22:50:39.966Z,11.10
2018-11-26T22:53:08.377Z,10.23
2018-11-26T22:55:36.032Z,9.60
2018-11-26T22:58:04.484Z,10.17
2018-11-26T23:00:41.270Z,10.10
2018-11-26T23:03:10.113Z,9.00
2018-11-26T23:05:37.795Z,10.00
2018-11-26T23:08:06.150Z,9.50
2018-11-26T23:10:33.842Z,9.93
2018-11-26T23:13:01.498Z,10.17
2018-11-26T23:15:29.390Z,9.77
2018-11-26T23:17:57.379Z,9.00
2018-11-26T23:20:25.038Z,9.30
2018-11-26T23:22:52.924Z,8.63
2018-11-26T23:25:20.590Z,9.77
2018-11-26T23:27:48.314Z,9.43
2018-11-26T23:30:21.312Z,9.70
2018-11-26T23:32:50.457Z,9.00
2018-11-26T23:35:18.360Z,8.50
2018-11-26T23:37:46.013Z,9.17
2018-11-26T23:40:13.791Z,9.40
2018-11-26T23:42:41.682Z,9.13
2018-11-26T23:45:11.387Z,8.87
2018-11-26T23:47:39.113Z,9.13
2018-11-26T23:50:08.988Z,9.10
2018-11-26T23:52:37.307Z,8.13
2018-11-26T23:55:07.357Z,8.43
2018-11-26T23:57:35.360Z,9.00
